San Adrian, Spain
Current Conditions -  °F | °C
As of 5:00 AM on Thursday 27 Nov 2014 (Local Time) from LELO Reporting Station
Moderate Fog Moderate Fog  
Wind Chill: 43°   Ceiling: 500
Heat Index: 43°   Visibility: 0.37mi
Dew Point: 43°   Wind: 2mph
Humidity: 100%   Direction: NA
Pressure: 29.74"   Gusts: NA
Location:  42.33°N, 1.94°W
Report Text: LELO 270400Z VRB02KT 0600 R29/1100U FG BKN005 06/06 Q1007
Loading
Personal Weather Stations






























Interactive Weather Map New forecast layout! Learn more

10-Day Weather Forecast

Advertisements
Track Severe Weather on mobile